Time;durP1;ratioP1;P1;durP2;ratioP2;P2;SDS_P1;SDS_P2;PMS_P1;PMS_P2;Temp;Humidity;BMP_temperature;BMP_pressure;BME280_temperature;BME280_humidity;BME280_pressure;Samples;Min_cycle;Max_cycle;Signal;HPM_P1;HPM_P2
2022/04/04 00:00:44;;;;;;;21.65;11.63;;;;;;;;;;4913412;29;20599;-63
2022/04/04 00:03:10;;;;;;;28.27;13.27;;;;;;;;;;4914932;29;20024;-63
2022/04/04 00:05:37;;;;;;;27.20;13.07;;;;;;;;;;4904365;29;20510;-63
2022/04/04 00:08:03;;;;;;;20.48;11.32;;;;;;;;;;4916443;29;20040;-62
2022/04/04 00:10:29;;;;;;;27.55;12.93;;;;;;;;;;4916019;29;20087;-63
2022/04/04 00:12:56;;;;;;;24.77;13.02;;;;;;;;;;4915885;29;20032;-63
2022/04/04 00:15:22;;;;;;;34.05;15.27;;;;;;;;;;4916494;29;20028;-62
2022/04/04 00:17:48;;;;;;;31.38;13.88;;;;;;;;;;4916442;29;20088;-63
2022/04/04 00:20:14;;;;;;;28.60;13.77;;;;;;;;;;4915891;29;20058;-63
2022/04/04 00:22:41;;;;;;;30.77;13.65;;;;;;;;;;4916292;29;20146;-62
2022/04/04 00:25:08;;;;;;;28.25;12.35;;;;;;;;;;4915756;29;20883;-62
2022/04/04 00:27:34;;;;;;;34.03;14.20;;;;;;;;;;4916278;29;20040;-63
2022/04/04 00:30:01;;;;;;;29.75;11.27;;;;;;;;;;4895925;29;20098;-62
2022/04/04 00:32:27;;;;;;;17.95;8.60;;;;;;;;;;4915547;29;20071;-63
2022/04/04 00:34:54;;;;;;;9.95;6.75;;;;;;;;;;4915513;29;20023;-63
2022/04/04 00:37:20;;;;;;;13.43;7.35;;;;;;;;;;4915993;29;20036;-63
2022/04/04 00:39:46;;;;;;;17.30;8.20;;;;;;;;;;4916110;29;20071;-63
2022/04/04 00:42:15;;;;;;;16.33;8.98;;;;;;;;;;4915739;29;20112;-62
2022/04/04 00:44:42;;;;;;;17.92;8.50;;;;;;;;;;4916143;29;20024;-63
2022/04/04 00:47:08;;;;;;;18.35;8.23;;;;;;;;;;4914493;29;20044;-63
2022/04/04 00:49:34;;;;;;;13.15;6.97;;;;;;;;;;4915880;29;20055;-62
2022/04/04 00:52:01;;;;;;;11.07;6.30;;;;;;;;;;4915496;29;20032;-63
2022/04/04 00:54:28;;;;;;;16.58;6.75;;;;;;;;;;4919751;29;20039;-62
2022/04/04 00:56:55;;;;;;;10.48;6.05;;;;;;;;;;4919023;29;20028;-62
2022/04/04 00:59:23;;;;;;;12.93;5.90;;;;;;;;;;4915880;29;20381;-63
2022/04/04 01:01:50;;;;;;;11.48;6.70;;;;;;;;;;4915984;29;20036;-63
2022/04/04 01:04:16;;;;;;;14.93;7.28;;;;;;;;;;4914215;29;20035;-63
2022/04/04 01:06:43;;;;;;;14.32;6.60;;;;;;;;;;4915768;29;20047;-62
2022/04/04 01:09:14;;;;;;;12.40;6.90;;;;;;;;;;4906297;29;20031;-63
2022/04/04 01:12:00;;;;;;;15.57;6.63;;;;;;;;;;4915964;29;20507;-62
2022/04/04 01:14:26;;;;;;;12.50;6.68;;;;;;;;;;4915625;29;20031;-63
2022/04/04 01:16:52;;;;;;;18.50;8.00;;;;;;;;;;4915655;29;20183;-62
2022/04/04 01:19:18;;;;;;;14.10;7.55;;;;;;;;;;4915029;29;20119;-62
2022/04/04 01:21:44;;;;;;;16.00;7.20;;;;;;;;;;4914855;29;20071;-62
2022/04/04 01:24:19;;;;;;;12.30;6.10;;;;;;;;;;4915401;29;20226;-63
2022/04/04 01:26:49;;;;;;;18.45;6.93;;;;;;;;;;4915662;29;20028;-63
2022/04/04 01:29:15;;;;;;;13.30;6.38;;;;;;;;;;4915302;29;20119;-63
2022/04/04 01:31:42;;;;;;;10.65;6.32;;;;;;;;;;4915291;29;20035;-63
2022/04/04 01:34:08;;;;;;;16.20;6.93;;;;;;;;;;4915377;29;20032;-63
2022/04/04 01:36:35;;;;;;;11.13;6.50;;;;;;;;;;4914664;29;20059;-63
2022/04/04 01:39:01;;;;;;;10.93;6.85;;;;;;;;;;4928122;29;20042;-63
2022/04/04 01:41:28;;;;;;;12.63;7.03;;;;;;;;;;4915158;29;20028;-62
2022/04/04 01:43:54;;;;;;;11.63;6.40;;;;;;;;;;4915526;29;20091;-63
2022/04/04 01:46:29;;;;;;;11.13;6.68;;;;;;;;;;4913737;29;20104;-62
2022/04/04 01:48:59;;;;;;;9.48;6.45;;;;;;;;;;4914675;29;20025;-63
2022/04/04 01:51:26;;;;;;;10.85;6.45;;;;;;;;;;4915254;29;20373;-63
2022/04/04 01:53:52;;;;;;;13.65;7.30;;;;;;;;;;4915489;29;20032;-63
2022/04/04 01:56:19;;;;;;;9.40;6.32;;;;;;;;;;4915737;29;20059;-63
2022/04/04 01:58:45;;;;;;;11.82;6.97;;;;;;;;;;4915485;29;20503;-62
2022/04/04 02:01:13;;;;;;;11.00;6.90;;;;;;;;;;4915635;29;20032;-63
2022/04/04 02:03:39;;;;;;;9.68;6.00;;;;;;;;;;4918834;29;20020;-62
2022/04/04 02:06:06;;;;;;;12.23;6.68;;;;;;;;;;4918580;29;20280;-62
2022/04/04 02:08:32;;;;;;;11.68;6.70;;;;;;;;;;4918628;29;20047;-62
2022/04/04 02:10:59;;;;;;;14.63;6.90;;;;;;;;;;4901733;29;20408;-63
2022/04/04 02:13:26;;;;;;;11.00;7.10;;;;;;;;;;4917199;29;20111;-62
2022/04/04 02:15:52;;;;;;;14.48;7.25;;;;;;;;;;4918334;29;20024;-62
2022/04/04 02:18:19;;;;;;;14.15;6.30;;;;;;;;;;4918303;29;20064;-63
2022/04/04 02:20:45;;;;;;;9.65;6.13;;;;;;;;;;4916420;29;20090;-63
2022/04/04 02:23:12;;;;;;;11.75;6.22;;;;;;;;;;4918332;29;20119;-63
2022/04/04 02:25:38;;;;;;;8.65;6.15;;;;;;;;;;4903175;29;20035;-62
2022/04/04 02:28:05;;;;;;;10.90;6.30;;;;;;;;;;4918291;29;20032;-62
2022/04/04 02:30:31;;;;;;;13.25;6.80;;;;;;;;;;4910725;29;20021;-63
2022/04/04 02:32:57;;;;;;;13.13;6.05;;;;;;;;;;4916067;29;20032;-63
2022/04/04 02:35:23;;;;;;;9.57;6.10;;;;;;;;;;4917949;29;20024;-63
2022/04/04 02:37:50;;;;;;;16.48;7.03;;;;;;;;;;4918004;29;20168;-63
2022/04/04 02:40:16;;;;;;;16.42;7.43;;;;;;;;;;4918218;29;20036;-63
2022/04/04 02:42:42;;;;;;;10.90;6.75;;;;;;;;;;4918208;29;20032;-63
2022/04/04 02:45:08;;;;;;;10.23;6.18;;;;;;;;;;4917149;29;20491;-63
2022/04/04 02:47:34;;;;;;;11.70;6.50;;;;;;;;;;4927038;29;20139;-63
2022/04/04 02:50:00;;;;;;;15.77;8.15;;;;;;;;;;4930934;29;20111;-63
2022/04/04 02:52:27;;;;;;;11.13;6.32;;;;;;;;;;4917762;29;20027;-63
2022/04/04 02:54:53;;;;;;;12.88;6.20;;;;;;;;;;4917877;29;20100;-62
2022/04/04 02:57:19;;;;;;;12.25;6.43;;;;;;;;;;4917620;29;20127;-62
2022/04/04 02:59:45;;;;;;;10.88;5.70;;;;;;;;;;4916285;29;20028;-63
2022/04/04 03:02:12;;;;;;;14.82;6.55;;;;;;;;;;4917711;29;20031;-62
2022/04/04 03:04:40;;;;;;;10.02;6.03;;;;;;;;;;4917619;29;20067;-63
2022/04/04 03:07:09;;;;;;;15.23;5.90;;;;;;;;;;4917639;29;20038;-63
2022/04/04 03:09:37;;;;;;;12.35;6.68;;;;;;;;;;4917221;29;20028;-63
2022/04/04 03:12:04;;;;;;;12.75;5.40;;;;;;;;;;4916278;29;20024;-63
2022/04/04 03:14:31;;;;;;;8.25;5.35;;;;;;;;;;4916989;29;20028;-63
2022/04/04 03:16:58;;;;;;;10.88;5.85;;;;;;;;;;4917531;29;20035;-63
2022/04/04 03:19:24;;;;;;;7.22;5.18;;;;;;;;;;4917587;29;20024;-63
2022/04/04 03:21:50;;;;;;;10.80;5.95;;;;;;;;;;4913463;29;20055;-62
2022/04/04 03:24:17;;;;;;;8.65;5.55;;;;;;;;;;4917208;29;20032;-62
2022/04/04 03:26:43;;;;;;;8.50;5.70;;;;;;;;;;4917126;29;20020;-62
2022/04/04 03:29:09;;;;;;;10.48;5.43;;;;;;;;;;4916307;29;20488;-63
2022/04/04 03:31:35;;;;;;;7.88;5.85;;;;;;;;;;4915666;29;20061;-63
2022/04/04 03:34:01;;;;;;;11.23;5.88;;;;;;;;;;4917031;29;20496;-62
2022/04/04 03:36:27;;;;;;;10.68;6.15;;;;;;;;;;4918407;29;20131;-62
2022/04/04 03:38:53;;;;;;;11.23;6.22;;;;;;;;;;4924332;29;20032;-63
2022/04/04 03:41:20;;;;;;;8.18;5.57;;;;;;;;;;4917366;29;20020;-63
2022/04/04 03:43:46;;;;;;;10.18;5.40;;;;;;;;;;4916401;29;20100;-63
2022/04/04 03:46:12;;;;;;;9.75;6.10;;;;;;;;;;4916014;29;20032;-63
2022/04/04 03:48:38;;;;;;;9.55;5.57;;;;;;;;;;4915443;29;20059;-63
2022/04/04 03:51:04;;;;;;;9.40;5.78;;;;;;;;;;4916263;29;20091;-63
2022/04/04 03:53:30;;;;;;;9.63;6.00;;;;;;;;;;4916016;29;20039;-62
2022/04/04 03:55:56;;;;;;;8.02;5.95;;;;;;;;;;4908202;29;20563;-63
2022/04/04 03:58:23;;;;;;;8.65;5.43;;;;;;;;;;4916351;29;20044;-63
2022/04/04 04:00:49;;;;;;;11.15;5.82;;;;;;;;;;4915795;29;20114;-63
2022/04/04 04:03:15;;;;;;;10.32;6.05;;;;;;;;;;4916810;29;20097;-63
2022/04/04 04:05:42;;;;;;;10.95;5.72;;;;;;;;;;4912202;29;20031;-63
2022/04/04 04:08:08;;;;;;;13.50;5.43;;;;;;;;;;4914660;29;20568;-63
2022/04/04 04:10:34;;;;;;;9.55;5.50;;;;;;;;;;4897399;29;20111;-63
2022/04/04 04:13:05;;;;;;;10.32;5.93;;;;;;;;;;4915698;29;20087;-62
2022/04/04 04:15:31;;;;;;;9.77;5.38;;;;;;;;;;4915015;29;20032;-62
2022/04/04 04:17:57;;;;;;;10.85;6.32;;;;;;;;;;4914445;29;20108;-62
2022/04/04 04:20:25;;;;;;;13.73;5.88;;;;;;;;;;4916979;29;20456;-62
2022/04/04 04:22:54;;;;;;;12.45;6.35;;;;;;;;;;4915496;29;20131;-62
2022/04/04 04:25:21;;;;;;;13.15;6.90;;;;;;;;;;4913874;29;20066;-62
2022/04/04 04:27:47;;;;;;;13.82;7.00;;;;;;;;;;4914147;29;20035;-62
2022/04/04 04:30:14;;;;;;;16.67;6.70;;;;;;;;;;4914987;29;20047;-62
2022/04/04 04:32:41;;;;;;;15.27;7.28;;;;;;;;;;4914569;29;20062;-62
2022/04/04 04:35:08;;;;;;;14.85;7.72;;;;;;;;;;4912669;29;20064;-62
2022/04/04 04:37:34;;;;;;;10.70;6.22;;;;;;;;;;4913283;29;20463;-62
2022/04/04 04:40:01;;;;;;;8.63;5.82;;;;;;;;;;4914581;29;20497;-62
2022/04/04 04:42:27;;;;;;;13.20;6.82;;;;;;;;;;4914513;29;20032;-63
2022/04/04 04:44:53;;;;;;;14.07;6.63;;;;;;;;;;4907230;29;20044;-63
2022/04/04 04:47:19;;;;;;;14.25;6.63;;;;;;;;;;4910390;29;20043;-63
2022/04/04 04:49:46;;;;;;;11.98;5.93;;;;;;;;;;4912469;29;20043;-71
2022/04/04 04:52:12;;;;;;;12.27;6.18;;;;;;;;;;4924913;29;20025;-70
2022/04/04 04:54:38;;;;;;;10.32;4.97;;;;;;;;;;4910943;29;20028;-71
2022/04/04 04:57:04;;;;;;;11.73;6.20;;;;;;;;;;4914928;29;20047;-70
2022/04/04 04:59:31;;;;;;;9.10;5.65;;;;;;;;;;4915441;29;20046;-70
2022/04/04 05:01:57;;;;;;;11.70;5.85;;;;;;;;;;4898043;29;20024;-73
2022/04/04 05:04:23;;;;;;;12.18;6.18;;;;;;;;;;4914716;29;20391;-71
2022/04/04 05:06:49;;;;;;;9.45;6.10;;;;;;;;;;4914647;29;20099;-70
2022/04/04 05:09:17;;;;;;;8.73;5.57;;;;;;;;;;4907784;29;20024;-68
2022/04/04 05:11:43;;;;;;;11.50;6.45;;;;;;;;;;4914501;29;20050;-63
2022/04/04 05:14:15;;;;;;;8.95;5.45;;;;;;;;;;4914692;29;20024;-63
2022/04/04 05:16:42;;;;;;;10.73;6.18;;;;;;;;;;4912941;29;20123;-64
2022/04/04 05:19:08;;;;;;;8.57;5.70;;;;;;;;;;4913185;29;20040;-64
2022/04/04 05:21:34;;;;;;;9.63;5.93;;;;;;;;;;4911945;29;20047;-64
2022/04/04 05:24:00;;;;;;;8.88;6.00;;;;;;;;;;4911790;29;20480;-64
2022/04/04 05:26:26;;;;;;;10.85;6.32;;;;;;;;;;4913606;29;20049;-64
2022/04/04 05:28:54;;;;;;;11.82;6.13;;;;;;;;;;4912503;29;20039;-63
2022/04/04 05:31:20;;;;;;;11.18;5.95;;;;;;;;;;4913289;29;20017;-64
2022/04/04 05:33:46;;;;;;;8.75;5.70;;;;;;;;;;4911684;29;20029;-63
2022/04/04 05:36:12;;;;;;;10.52;6.25;;;;;;;;;;4913950;29;20036;-64
2022/04/04 05:38:39;;;;;;;8.90;5.25;;;;;;;;;;4899335;29;20111;-64
2022/04/04 05:41:05;;;;;;;10.70;5.32;;;;;;;;;;4919948;29;20085;-64
2022/04/04 05:43:31;;;;;;;9.90;5.38;;;;;;;;;;4914979;29;20567;-64
2022/04/04 05:45:58;;;;;;;11.40;6.55;;;;;;;;;;4916521;29;20358;-64
2022/04/04 05:48:27;;;;;;;10.15;5.57;;;;;;;;;;4918007;29;20069;-64
2022/04/04 05:50:54;;;;;;;10.20;6.65;;;;;;;;;;4915225;29;20032;-73
2022/04/04 05:53:20;;;;;;;10.25;6.15;;;;;;;;;;4918568;29;20111;-64
2022/04/04 05:55:46;;;;;;;12.02;6.65;;;;;;;;;;4921795;29;20028;-64
2022/04/04 05:58:12;;;;;;;9.25;5.70;;;;;;;;;;4917089;29;20040;-64
2022/04/04 06:00:38;;;;;;;14.38;6.80;;;;;;;;;;4918743;29;20032;-64
2022/04/04 06:03:06;;;;;;;15.77;6.25;;;;;;;;;;4917065;29;20032;-64
2022/04/04 06:05:34;;;;;;;15.30;6.70;;;;;;;;;;4917635;29;20042;-63
2022/04/04 06:08:01;;;;;;;13.80;5.75;;;;;;;;;;4917658;29;20032;-64
2022/04/04 06:10:27;;;;;;;17.85;6.50;;;;;;;;;;4917426;29;20107;-64
2022/04/04 06:12:53;;;;;;;14.10;6.75;;;;;;;;;;4917799;29;20480;-64
2022/04/04 06:15:20;;;;;;;10.27;6.32;;;;;;;;;;4917556;29;20036;-63
2022/04/04 06:17:46;;;;;;;9.75;6.40;;;;;;;;;;4917778;29;20481;-64
2022/04/04 06:20:13;;;;;;;15.40;6.85;;;;;;;;;;4917332;29;20028;-64
2022/04/04 06:22:40;;;;;;;14.35;6.72;;;;;;;;;;4917101;29;20622;-64
2022/04/04 06:25:12;;;;;;;18.33;7.45;;;;;;;;;;4917513;29;20032;-63
2022/04/04 06:27:39;;;;;;;12.38;7.57;;;;;;;;;;4917494;29;20047;-64
2022/04/04 06:30:06;;;;;;;13.43;6.72;;;;;;;;;;4917397;29;20030;-64
2022/04/04 06:32:33;;;;;;;17.02;7.22;;;;;;;;;;4916763;29;20059;-64
2022/04/04 06:34:59;;;;;;;10.68;7.22;;;;;;;;;;4917999;29;20027;-64
2022/04/04 06:37:25;;;;;;;20.33;8.18;;;;;;;;;;4919882;29;20445;-64
2022/04/04 06:39:51;;;;;;;13.20;6.75;;;;;;;;;;4915890;29;20556;-64
2022/04/04 06:42:19;;;;;;;13.73;7.57;;;;;;;;;;4914802;29;20034;-64
2022/04/04 06:44:45;;;;;;;14.18;7.40;;;;;;;;;;4915411;29;20056;-64
2022/04/04 06:47:11;;;;;;;11.02;7.15;;;;;;;;;;4916159;29;20044;-64
2022/04/04 06:49:37;;;;;;;11.20;6.82;;;;;;;;;;4916490;29;20059;-64
2022/04/04 06:52:04;;;;;;;12.52;6.90;;;;;;;;;;4915265;29;20032;-64
2022/04/04 06:54:30;;;;;;;14.18;8.23;;;;;;;;;;4916442;29;20035;-66
2022/04/04 06:56:56;;;;;;;11.95;6.97;;;;;;;;;;4916946;29;20119;-66
2022/04/04 06:59:22;;;;;;;13.05;8.15;;;;;;;;;;4913221;29;20084;-66
2022/04/04 07:01:50;;;;;;;16.35;8.13;;;;;;;;;;4915731;29;20032;-66
2022/04/04 07:04:16;;;;;;;14.50;7.93;;;;;;;;;;4917016;29;20024;-66
2022/04/04 07:06:42;;;;;;;17.58;9.32;;;;;;;;;;4930175;29;20071;-66
2022/04/04 07:09:09;;;;;;;13.65;6.97;;;;;;;;;;4916842;29;20028;-66
2022/04/04 07:11:35;;;;;;;15.38;7.50;;;;;;;;;;4915764;29;20484;-66
2022/04/04 07:14:02;;;;;;;10.77;7.53;;;;;;;;;;4917155;29;20012;-66
2022/04/04 07:16:29;;;;;;;15.50;9.57;;;;;;;;;;4916033;29;20043;-66
2022/04/04 07:18:55;;;;;;;17.90;11.00;;;;;;;;;;4915536;29;20069;-66
2022/04/04 07:21:22;;;;;;;17.48;8.43;;;;;;;;;;4915752;29;20094;-66
2022/04/04 07:23:49;;;;;;;14.48;7.60;;;;;;;;;;4916146;29;20032;-66
2022/04/04 07:26:19;;;;;;;17.05;9.60;;;;;;;;;;4915539;29;20111;-66
2022/04/04 07:28:48;;;;;;;21.33;10.65;;;;;;;;;;4915573;29;20507;-66
2022/04/04 07:31:17;;;;;;;18.92;8.40;;;;;;;;;;4916197;29;20102;-66
2022/04/04 07:33:43;;;;;;;14.93;8.18;;;;;;;;;;4915613;29;20039;-66
2022/04/04 07:36:10;;;;;;;22.95;7.70;;;;;;;;;;4915625;29;20032;-66
2022/04/04 07:38:37;;;;;;;17.88;7.57;;;;;;;;;;4914461;29;20024;-66
2022/04/04 07:41:03;;;;;;;14.65;6.97;;;;;;;;;;4898628;29;20039;-66
2022/04/04 07:43:29;;;;;;;14.32;6.85;;;;;;;;;;4915502;29;20567;-66
2022/04/04 07:45:55;;;;;;;17.73;7.30;;;;;;;;;;4915059;29;20055;-66
2022/04/04 07:48:21;;;;;;;13.63;6.25;;;;;;;;;;4915657;29;20075;-66
2022/04/04 07:50:47;;;;;;;15.30;7.68;;;;;;;;;;4915809;29;20043;-66
2022/04/04 07:53:13;;;;;;;16.70;7.95;;;;;;;;;;4915847;29;20020;-66
2022/04/04 07:55:40;;;;;;;15.10;7.57;;;;;;;;;;4914222;29;20034;-66
2022/04/04 07:58:06;;;;;;;14.50;8.00;;;;;;;;;;4914747;29;20492;-66
2022/04/04 08:00:33;;;;;;;9.70;6.18;;;;;;;;;;4914767;29;20507;-66
2022/04/04 08:02:59;;;;;;;12.55;6.13;;;;;;;;;;4911524;29;20552;-66
2022/04/04 08:05:26;;;;;;;11.52;6.50;;;;;;;;;;4914463;29;20040;-66
2022/04/04 08:07:53;;;;;;;15.77;9.13;;;;;;;;;;4914813;29;20072;-66
2022/04/04 08:10:19;;;;;;;20.35;6.90;;;;;;;;;;4912442;29;20048;-66
2022/04/04 08:12:46;;;;;;;9.63;5.72;;;;;;;;;;4914380;29;20062;-66
2022/04/04 08:15:12;;;;;;;8.40;5.72;;;;;;;;;;4914218;29;20021;-66
2022/04/04 08:17:38;;;;;;;12.13;6.05;;;;;;;;;;4912365;29;20047;-66
2022/04/04 08:20:05;;;;;;;10.25;5.80;;;;;;;;;;4914358;29;20032;-66
2022/04/04 08:22:37;;;;;;;8.90;5.50;;;;;;;;;;4914774;29;20044;-66
2022/04/04 08:25:04;;;;;;;9.25;5.28;;;;;;;;;;4921382;29;20024;-66
2022/04/04 08:27:31;;;;;;;12.18;5.50;;;;;;;;;;4917696;29;20035;-66
2022/04/04 08:29:57;;;;;;;11.60;5.13;;;;;;;;;;4916071;29;20488;-66
2022/04/04 08:32:24;;;;;;;9.25;5.85;;;;;;;;;;4913494;29;20589;-66
2022/04/04 08:34:50;;;;;;;9.50;5.72;;;;;;;;;;4915948;29;20032;-67
2022/04/04 08:37:17;;;;;;;15.00;5.38;;;;;;;;;;4914120;29;20059;-67
2022/04/04 08:39:47;;;;;;;9.25;5.60;;;;;;;;;;4914888;29;20047;-66
2022/04/04 08:42:14;;;;;;;8.32;4.95;;;;;;;;;;4913438;29;20036;-66
2022/04/04 08:44:40;;;;;;;9.90;5.60;;;;;;;;;;4915529;29;20248;-66
2022/04/04 08:47:07;;;;;;;10.25;4.90;;;;;;;;;;4912091;29;20381;-66
2022/04/04 08:49:34;;;;;;;7.50;5.43;;;;;;;;;;4912991;29;20052;-67
2022/04/04 08:52:00;;;;;;;9.98;5.10;;;;;;;;;;4913444;29;20024;-67
2022/04/04 08:54:26;;;;;;;7.10;4.85;;;;;;;;;;4915754;29;20076;-66
2022/04/04 08:56:52;;;;;;;6.95;4.85;;;;;;;;;;4916524;29;20509;-66
2022/04/04 08:59:19;;;;;;;7.35;4.90;;;;;;;;;;4915024;29;20028;-66
2022/04/04 09:01:45;;;;;;;11.98;4.88;;;;;;;;;;4913621;29;20040;-66
2022/04/04 09:04:11;;;;;;;7.85;4.82;;;;;;;;;;4913017;29;20039;-66
2022/04/04 09:06:53;;;;;;;10.75;5.20;;;;;;;;;;4913148;29;20492;-66
2022/04/04 09:09:22;;;;;;;7.33;5.17;;;;;;;;;;4913387;29;20024;-66
2022/04/04 09:11:53;;;;;;;9.23;5.03;;;;;;;;;;4912476;29;20311;-66
2022/04/04 09:14:24;;;;;;;10.82;5.22;;;;;;;;;;4913134;29;20024;-66
2022/04/04 09:16:56;;;;;;;8.35;4.70;;;;;;;;;;4916506;29;20518;-66
2022/04/04 09:19:29;;;;;;;12.05;5.20;;;;;;;;;;4917719;29;20040;-66
2022/04/04 09:21:56;;;;;;;7.43;5.00;;;;;;;;;;4914185;29;20051;-66
2022/04/04 09:24:22;;;;;;;5.70;4.82;;;;;;;;;;4918315;29;20036;-66
2022/04/04 09:26:49;;;;;;;6.78;4.80;;;;;;;;;;4917863;29;20047;-66
2022/04/04 09:29:20;;;;;;;8.45;4.60;;;;;;;;;;4913121;29;20518;-66
2022/04/04 09:31:58;;;;;;;10.32;5.30;;;;;;;;;;4918010;29;20511;-66
2022/04/04 09:34:24;;;;;;;7.90;5.05;;;;;;;;;;4911524;29;20436;-66
2022/04/04 09:36:50;;;;;;;11.00;4.88;;;;;;;;;;4917152;29;20028;-66
2022/04/04 09:39:17;;;;;;;13.43;4.97;;;;;;;;;;4912352;29;20432;-66
2022/04/04 09:41:43;;;;;;;7.63;5.30;;;;;;;;;;4915563;29;20040;-66
2022/04/04 09:44:11;;;;;;;8.95;4.78;;;;;;;;;;4917001;29;20488;-66
2022/04/04 09:46:38;;;;;;;8.18;4.93;;;;;;;;;;4921773;29;20028;-66
2022/04/04 09:49:05;;;;;;;8.02;5.28;;;;;;;;;;4917773;29;20504;-66
2022/04/04 09:51:37;;;;;;;9.27;5.72;;;;;;;;;;4918189;29;20028;-66
2022/04/04 09:54:04;;;;;;;10.95;5.78;;;;;;;;;;4918169;29;20055;-66
2022/04/04 09:56:30;;;;;;;10.00;5.38;;;;;;;;;;4917533;29;20574;-66
2022/04/04 09:58:58;;;;;;;9.18;5.45;;;;;;;;;;4916033;29;20555;-66
2022/04/04 10:01:24;;;;;;;9.93;5.38;;;;;;;;;;4918464;29;20439;-66
2022/04/04 10:03:51;;;;;;;13.32;5.05;;;;;;;;;;4919484;29;20511;-66
2022/04/04 10:06:19;;;;;;;12.80;5.63;;;;;;;;;;4925543;29;20119;-66
2022/04/04 10:08:46;;;;;;;10.90;5.88;;;;;;;;;;4916416;29;20587;-66
2022/04/04 10:11:13;;;;;;;9.27;5.68;;;;;;;;;;4916467;29;20099;-66
2022/04/04 10:13:39;;;;;;;10.18;5.53;;;;;;;;;;4909268;29;20032;-66
2022/04/04 10:16:05;;;;;;;6.63;5.45;;;;;;;;;;4916164;29;20484;-66
2022/04/04 10:18:33;;;;;;;11.02;5.38;;;;;;;;;;4916195;29;20032;-66
2022/04/04 10:20:59;;;;;;;8.65;5.40;;;;;;;;;;4915852;29;20041;-66
2022/04/04 10:23:26;;;;;;;8.98;5.20;;;;;;;;;;4915718;29;20043;-66
2022/04/04 10:25:52;;;;;;;6.68;4.13;;;;;;;;;;4917022;29;20115;-66
2022/04/04 10:28:28;;;;;;;7.13;3.90;;;;;;;;;;4916310;29;20086;-66
2022/04/04 10:30:57;;;;;;;9.10;4.05;;;;;;;;;;4915996;29;20091;-66
2022/04/04 10:33:24;;;;;;;5.15;3.75;;;;;;;;;;4912887;29;20492;-66
2022/04/04 10:36:01;;;;;;;9.63;4.72;;;;;;;;;;4917578;29;20062;-67
2022/04/04 10:38:34;;;;;;;9.43;4.82;;;;;;;;;;4916013;29;20028;-67
2022/04/04 10:41:10;;;;;;;4.20;3.45;;;;;;;;;;4916254;29;20063;-67
2022/04/04 10:43:40;;;;;;;9.23;3.83;;;;;;;;;;4913613;29;20040;-67
2022/04/04 10:46:10;;;;;;;8.55;4.13;;;;;;;;;;4915308;29;20056;-67
2022/04/04 10:48:47;;;;;;;6.88;5.07;;;;;;;;;;4915809;29;20460;-67
2022/04/04 10:51:20;;;;;;;11.48;3.78;;;;;;;;;;4914925;29;20032;-67
2022/04/04 10:53:51;;;;;;;4.72;3.28;;;;;;;;;;4916143;29;20024;-67
2022/04/04 10:56:28;;;;;;;9.75;4.07;;;;;;;;;;4914458;29;20040;-67
2022/04/04 10:59:14;;;;;;;5.25;3.83;;;;;;;;;;4909464;29;20084;-67
2022/04/04 11:01:41;;;;;;;8.70;3.60;;;;;;;;;;4917562;29;20036;-67
2022/04/04 11:04:22;;;;;;;5.70;3.78;;;;;;;;;;4918989;29;20396;-67
2022/04/04 11:09:46;;;;;;;8.82;3.55;;;;;;;;;;4914955;29;20415;-67
2022/04/04 11:12:14;;;;;;;3.55;3.08;;;;;;;;;;4917342;29;20024;-66
2022/04/04 11:14:42;;;;;;;7.47;3.60;;;;;;;;;;4921315;29;20020;-66
2022/04/04 11:20:10;;;;;;;5.68;3.20;;;;;;;;;;4914292;29;20119;-67
2022/04/04 11:22:51;;;;;;;8.65;3.33;;;;;;;;;;4915737;29;20055;-67
2022/04/04 11:25:19;;;;;;;4.30;3.10;;;;;;;;;;4915699;29;20036;-67
2022/04/04 11:27:48;;;;;;;4.60;3.03;;;;;;;;;;4914806;29;20016;-67
2022/04/04 11:30:16;;;;;;;8.40;3.15;;;;;;;;;;4914279;29;20127;-67
2022/04/04 11:32:42;;;;;;;6.13;3.17;;;;;;;;;;4914704;29;20020;-67
2022/04/04 11:35:14;;;;;;;8.13;2.85;;;;;;;;;;4911561;29;20115;-67
2022/04/04 11:38:19;;;;;;;6.07;3.37;;;;;;;;;;4912590;29;20028;-67
2022/04/04 11:40:50;;;;;;;5.65;3.38;;;;;;;;;;4893311;29;20524;-67
2022/04/04 11:43:16;;;;;;;8.68;3.30;;;;;;;;;;4892153;29;20041;-67
2022/04/04 11:45:43;;;;;;;7.85;3.70;;;;;;;;;;4910882;29;21257;-67
2022/04/04 11:48:24;;;;;;;7.35;3.35;;;;;;;;;;4892100;29;20048;-67
2022/04/04 11:50:56;;;;;;;9.10;3.50;;;;;;;;;;4886425;29;20386;-67
2022/04/04 11:53:25;;;;;;;10.23;3.22;;;;;;;;;;4895275;29;20402;-67
2022/04/04 11:55:52;;;;;;;7.28;3.20;;;;;;;;;;4896662;29;20050;-67
2022/04/04 11:58:20;;;;;;;10.18;3.40;;;;;;;;;;4906527;29;20098;-67
2022/04/04 12:00:54;;;;;;;10.30;3.40;;;;;;;;;;4897517;29;20509;-67
2022/04/04 12:03:21;;;;;;;9.73;5.68;;;;;;;;;;4893890;29;20521;-67
2022/04/04 12:05:48;;;;;;;12.02;4.88;;;;;;;;;;4900311;29;20532;-67
2022/04/04 12:08:17;;;;;;;9.25;5.07;;;;;;;;;;4900941;29;20044;-67
2022/04/04 12:10:45;;;;;;;9.10;7.05;;;;;;;;;;4895849;29;20029;-67
2022/04/04 12:13:19;;;;;;;6.38;3.83;;;;;;;;;;4891883;29;20037;-67
2022/04/04 12:15:47;;;;;;;19.30;10.85;;;;;;;;;;4914490;29;20044;-67
2022/04/04 12:18:20;;;;;;;11.40;6.15;;;;;;;;;;4907671;29;20036;-67
2022/04/04 12:20:47;;;;;;;7.07;4.60;;;;;;;;;;4914852;29;20040;-67
2022/04/04 12:26:00;;;;;;;11.52;4.57;;;;;;;;;;4913479;29;20099;-67
2022/04/04 12:28:32;;;;;;;10.30;4.38;;;;;;;;;;4914735;29;20028;-67
2022/04/04 12:31:09;;;;;;;10.20;4.00;;;;;;;;;;4915187;29;20035;-67
2022/04/04 12:33:35;;;;;;;7.40;4.13;;;;;;;;;;4913697;29;20040;-67
2022/04/04 12:36:01;;;;;;;8.35;4.65;;;;;;;;;;4914938;29;20024;-67
2022/04/04 12:38:37;;;;;;;8.68;4.15;;;;;;;;;;4914716;29;20115;-67
2022/04/04 12:41:13;;;;;;;8.15;4.32;;;;;;;;;;4915485;29;20043;-67
2022/04/04 12:43:43;;;;;;;10.07;4.80;;;;;;;;;;4904125;29;20051;-67
2022/04/04 12:46:27;;;;;;;8.70;4.13;;;;;;;;;;4914155;29;20024;-67
2022/04/04 12:48:54;;;;;;;6.35;4.03;;;;;;;;;;4914464;29;20566;-67
2022/04/04 12:51:31;;;;;;;8.88;4.82;;;;;;;;;;4914446;29;20028;-67
2022/04/04 12:54:00;;;;;;;11.15;5.80;;;;;;;;;;4913084;29;20056;-67
2022/04/04 12:56:27;;;;;;;12.50;6.53;;;;;;;;;;4904979;29;20066;-67
2022/04/04 12:59:03;;;;;;;14.43;6.40;;;;;;;;;;4914627;29;20503;-67
2022/04/04 13:01:29;;;;;;;9.05;6.00;;;;;;;;;;4908756;29;20029;-67
2022/04/04 13:03:56;;;;;;;9.23;5.95;;;;;;;;;;4913277;29;20104;-67
2022/04/04 13:06:22;;;;;;;11.70;6.68;;;;;;;;;;4913984;29;20028;-67
2022/04/04 13:08:53;;;;;;;12.20;6.22;;;;;;;;;;4914455;29;20499;-67
2022/04/04 13:11:20;;;;;;;13.90;6.00;;;;;;;;;;4915468;29;20487;-67
2022/04/04 13:13:56;;;;;;;8.88;5.75;;;;;;;;;;4914424;29;20380;-66
2022/04/04 13:16:29;;;;;;;7.97;4.97;;;;;;;;;;4915548;29;20488;-66
2022/04/04 13:18:56;;;;;;;10.10;5.95;;;;;;;;;;4912944;29;20040;-66
2022/04/04 13:21:22;;;;;;;8.63;4.47;;;;;;;;;;4916872;29;20048;-67
2022/04/04 13:23:48;;;;;;;11.57;4.13;;;;;;;;;;4905928;29;20056;-67
2022/04/04 13:26:14;;;;;;;11.05;4.10;;;;;;;;;;4924811;29;20028;-66
2022/04/04 13:28:40;;;;;;;8.32;4.18;;;;;;;;;;4914374;29;20036;-67
2022/04/04 13:31:06;;;;;;;8.15;3.63;;;;;;;;;;4918843;29;20023;-67
2022/04/04 13:33:33;;;;;;;5.50;3.30;;;;;;;;;;4914984;29;20028;-67
2022/04/04 13:36:01;;;;;;;9.52;3.33;;;;;;;;;;4928280;29;20028;-67
2022/04/04 13:38:27;;;;;;;6.00;3.45;;;;;;;;;;4914335;29;20036;-66
2022/04/04 13:40:53;;;;;;;8.20;3.45;;;;;;;;;;4908921;29;20033;-67
2022/04/04 13:43:20;;;;;;;5.13;3.50;;;;;;;;;;4917084;29;20071;-67
2022/04/04 13:45:46;;;;;;;4.75;3.75;;;;;;;;;;4922600;29;20099;-67
2022/04/04 13:48:12;;;;;;;5.63;2.75;;;;;;;;;;4913723;29;20051;-67
2022/04/04 13:50:38;;;;;;;7.85;2.90;;;;;;;;;;4918783;29;20407;-67
2022/04/04 13:53:04;;;;;;;5.40;2.50;;;;;;;;;;4912524;29;20032;-67
2022/04/04 13:55:30;;;;;;;3.28;2.50;;;;;;;;;;4910828;29;20028;-67
2022/04/04 13:57:56;;;;;;;5.07;2.58;;;;;;;;;;4914734;29;20078;-67
2022/04/04 14:00:22;;;;;;;5.20;2.65;;;;;;;;;;4915791;29;20035;-67
2022/04/04 14:02:49;;;;;;;6.47;2.17;;;;;;;;;;4916148;29;20064;-67
2022/04/04 14:05:16;;;;;;;7.53;2.10;;;;;;;;;;4919126;29;20039;-67
2022/04/04 14:07:42;;;;;;;5.65;2.30;;;;;;;;;;4916882;29;20020;-67
2022/04/04 14:10:09;;;;;;;3.13;2.05;;;;;;;;;;4925447;29;20032;-67
2022/04/04 14:12:35;;;;;;;3.53;2.50;;;;;;;;;;4916391;29;20511;-67
2022/04/04 14:15:06;;;;;;;3.45;2.08;;;;;;;;;;4921937;29;20097;-67
2022/04/04 14:17:35;;;;;;;4.22;2.22;;;;;;;;;;4917015;29;20440;-67
2022/04/04 14:20:05;;;;;;;4.32;2.10;;;;;;;;;;4899820;29;20400;-67
2022/04/04 14:22:32;;;;;;;3.63;1.90;;;;;;;;;;4896793;29;20052;-67
2022/04/04 14:24:58;;;;;;;2.22;1.83;;;;;;;;;;4897257;29;20052;-67
2022/04/04 14:27:25;;;;;;;6.07;1.83;;;;;;;;;;4896428;29;20389;-67
2022/04/04 14:29:51;;;;;;;3.78;2.97;;;;;;;;;;4897016;29;20029;-68
2022/04/04 14:32:17;;;;;;;5.85;2.28;;;;;;;;;;4897469;29;20091;-67
2022/04/04 14:34:44;;;;;;;5.43;2.67;;;;;;;;;;4903479;29;20104;-67
2022/04/04 14:37:10;;;;;;;4.75;3.08;;;;;;;;;;4897363;29;20056;-67
2022/04/04 14:39:38;;;;;;;5.88;3.83;;;;;;;;;;4897488;29;20499;-67
2022/04/04 14:42:05;;;;;;;5.65;2.40;;;;;;;;;;4897013;29;20041;-67
2022/04/04 14:44:31;;;;;;;5.22;1.80;;;;;;;;;;4879131;29;20032;-67
2022/04/04 14:46:57;;;;;;;4.25;2.08;;;;;;;;;;4896104;29;20064;-67